sensor_id;sensor_type;location;lat;lon;timestamp;noise_LAeq;noise_LA_min;noise_LA_max;noise_LA01;noise_LA95
47923;Laerm;33688;44.354;9.228;2023-12-07T00:01:09;36.68;35.13;41.53;;
47923;Laerm;33688;44.354;9.228;2023-12-07T00:03:35;36.67;35.17;41.59;;
47923;Laerm;33688;44.354;9.228;2023-12-07T00:06:00;36.65;35.07;41.32;;
47923;Laerm;33688;44.354;9.228;2023-12-07T00:08:26;36.67;35.04;41.63;;
47923;Laerm;33688;44.354;9.228;2023-12-07T00:10:52;36.67;35.13;41.67;;
47923;Laerm;33688;44.354;9.228;2023-12-07T00:13:18;38.12;35.03;50.62;;
47923;Laerm;33688;44.354;9.228;2023-12-07T00:15:44;36.66;35.12;41.17;;
47923;Laerm;33688;44.354;9.228;2023-12-07T00:18:10;36.66;35.04;41.79;;
47923;Laerm;33688;44.354;9.228;2023-12-07T00:20:37;36.64;35.06;41.55;;
47923;Laerm;33688;44.354;9.228;2023-12-07T00:23:03;36.66;35.14;41.69;;
47923;Laerm;33688;44.354;9.228;2023-12-07T00:25:30;36.63;35.03;41.61;;
47923;Laerm;33688;44.354;9.228;2023-12-07T00:27:57;36.65;35.11;41.99;;
47923;Laerm;33688;44.354;9.228;2023-12-07T00:30:24;36.63;35.05;41.63;;
47923;Laerm;33688;44.354;9.228;2023-12-07T00:32:50;36.68;35.15;41.52;;
47923;Laerm;33688;44.354;9.228;2023-12-07T00:35:16;36.64;34.90;41.19;;
47923;Laerm;33688;44.354;9.228;2023-12-07T00:37:42;36.61;35.09;41.43;;
47923;Laerm;33688;44.354;9.228;2023-12-07T00:40:10;36.65;34.96;41.45;;
47923;Laerm;33688;44.354;9.228;2023-12-07T00:42:36;36.62;35.07;41.16;;
47923;Laerm;33688;44.354;9.228;2023-12-07T00:45:03;36.67;35.01;42.90;;
47923;Laerm;33688;44.354;9.228;2023-12-07T00:47:29;36.67;35.06;43.97;;
47923;Laerm;33688;44.354;9.228;2023-12-07T00:49:55;36.63;34.80;41.54;;
47923;Laerm;33688;44.354;9.228;2023-12-07T00:52:21;36.75;35.12;50.38;;
47923;Laerm;33688;44.354;9.228;2023-12-07T00:54:47;37.08;35.00;53.43;;
47923;Laerm;33688;44.354;9.228;2023-12-07T00:57:14;36.61;34.99;41.32;;
47923;Laerm;33688;44.354;9.228;2023-12-07T00:59:40;36.63;35.07;41.84;;
47923;Laerm;33688;44.354;9.228;2023-12-07T01:02:06;36.62;34.97;41.50;;
47923;Laerm;33688;44.354;9.228;2023-12-07T01:04:33;36.63;34.80;41.56;;
47923;Laerm;33688;44.354;9.228;2023-12-07T01:07:01;36.62;34.87;41.36;;
47923;Laerm;33688;44.354;9.228;2023-12-07T01:09:26;36.66;34.87;42.20;;
47923;Laerm;33688;44.354;9.228;2023-12-07T01:11:52;36.62;34.97;41.33;;
47923;Laerm;33688;44.354;9.228;2023-12-07T01:14:18;36.62;35.09;41.35;;
47923;Laerm;33688;44.354;9.228;2023-12-07T01:16:45;36.65;35.11;41.96;;
47923;Laerm;33688;44.354;9.228;2023-12-07T01:19:11;37.89;35.01;50.18;;
47923;Laerm;33688;44.354;9.228;2023-12-07T01:21:41;36.65;35.14;41.71;;
47923;Laerm;33688;44.354;9.228;2023-12-07T01:24:09;36.65;35.10;41.47;;
47923;Laerm;33688;44.354;9.228;2023-12-07T01:26:34;36.69;35.13;41.87;;
47923;Laerm;33688;44.354;9.228;2023-12-07T01:29:01;36.67;35.17;41.16;;
47923;Laerm;33688;44.354;9.228;2023-12-07T01:31:29;36.61;34.82;41.89;;
47923;Laerm;33688;44.354;9.228;2023-12-07T01:33:55;36.62;35.03;41.43;;
47923;Laerm;33688;44.354;9.228;2023-12-07T01:36:22;36.61;35.05;41.56;;
47923;Laerm;33688;44.354;9.228;2023-12-07T01:38:48;36.59;35.14;41.67;;
47923;Laerm;33688;44.354;9.228;2023-12-07T01:41:14;36.64;35.07;41.36;;
47923;Laerm;33688;44.354;9.228;2023-12-07T01:43:47;36.60;35.01;41.51;;
47923;Laerm;33688;44.354;9.228;2023-12-07T01:46:14;36.63;35.09;41.26;;
47923;Laerm;33688;44.354;9.228;2023-12-07T01:48:41;36.64;35.14;41.56;;
47923;Laerm;33688;44.354;9.228;2023-12-07T01:51:09;36.64;35.06;41.56;;
47923;Laerm;33688;44.354;9.228;2023-12-07T01:53:39;36.66;35.18;41.73;;
47923;Laerm;33688;44.354;9.228;2023-12-07T01:56:05;36.71;35.13;45.56;;
47923;Laerm;33688;44.354;9.228;2023-12-07T01:58:32;36.69;35.04;43.78;;
47923;Laerm;33688;44.354;9.228;2023-12-07T02:00:58;36.63;35.20;41.94;;
47923;Laerm;33688;44.354;9.228;2023-12-07T02:03:26;36.64;35.11;41.39;;
47923;Laerm;33688;44.354;9.228;2023-12-07T02:05:53;36.64;35.04;41.05;;
47923;Laerm;33688;44.354;9.228;2023-12-07T02:08:21;36.65;35.11;41.83;;
47923;Laerm;33688;44.354;9.228;2023-12-07T02:10:47;36.67;35.20;45.46;;
47923;Laerm;33688;44.354;9.228;2023-12-07T02:13:12;36.66;35.16;41.57;;
47923;Laerm;33688;44.354;9.228;2023-12-07T02:15:39;36.65;35.02;41.55;;
47923;Laerm;33688;44.354;9.228;2023-12-07T02:18:32;36.63;35.02;41.38;;
47923;Laerm;33688;44.354;9.228;2023-12-07T02:21:16;36.44;35.05;41.35;;
47923;Laerm;33688;44.354;9.228;2023-12-07T02:23:46;35.77;35.07;36.49;;
47923;Laerm;33688;44.354;9.228;2023-12-07T02:26:13;36.64;35.10;50.96;;
47923;Laerm;33688;44.354;9.228;2023-12-07T02:28:42;36.57;34.98;41.21;;
47923;Laerm;33688;44.354;9.228;2023-12-07T02:31:07;36.59;35.13;41.71;;
47923;Laerm;33688;44.354;9.228;2023-12-07T02:33:34;36.60;35.10;41.70;;
47923;Laerm;33688;44.354;9.228;2023-12-07T02:35:59;36.63;34.92;41.60;;
47923;Laerm;33688;44.354;9.228;2023-12-07T02:38:26;36.59;35.15;41.27;;
47923;Laerm;33688;44.354;9.228;2023-12-07T02:40:54;36.62;35.11;42.06;;
47923;Laerm;33688;44.354;9.228;2023-12-07T02:43:21;36.60;35.00;41.36;;
47923;Laerm;33688;44.354;9.228;2023-12-07T02:45:48;36.59;34.96;42.38;;
47923;Laerm;33688;44.354;9.228;2023-12-07T02:48:14;36.60;35.10;41.22;;
47923;Laerm;33688;44.354;9.228;2023-12-07T02:50:43;36.61;35.13;41.66;;
47923;Laerm;33688;44.354;9.228;2023-12-07T02:53:08;36.60;35.06;41.29;;
47923;Laerm;33688;44.354;9.228;2023-12-07T02:55:34;36.60;35.12;41.32;;
47923;Laerm;33688;44.354;9.228;2023-12-07T02:58:00;36.60;35.08;41.06;;
47923;Laerm;33688;44.354;9.228;2023-12-07T03:00:27;36.60;35.06;41.64;;
47923;Laerm;33688;44.354;9.228;2023-12-07T03:02:53;36.62;35.14;41.44;;
47923;Laerm;33688;44.354;9.228;2023-12-07T03:05:19;36.61;35.09;41.54;;
47923;Laerm;33688;44.354;9.228;2023-12-07T03:07:46;36.62;34.89;41.76;;
47923;Laerm;33688;44.354;9.228;2023-12-07T03:10:12;36.62;35.02;41.56;;
47923;Laerm;33688;44.354;9.228;2023-12-07T03:12:37;36.62;35.04;41.53;;
47923;Laerm;33688;44.354;9.228;2023-12-07T03:15:03;36.59;35.09;41.42;;
47923;Laerm;33688;44.354;9.228;2023-12-07T03:17:31;36.60;35.16;41.31;;
47923;Laerm;33688;44.354;9.228;2023-12-07T03:19:56;36.63;35.00;41.18;;
47923;Laerm;33688;44.354;9.228;2023-12-07T03:22:22;36.62;35.08;41.45;;
47923;Laerm;33688;44.354;9.228;2023-12-07T03:24:51;36.58;35.15;41.71;;
47923;Laerm;33688;44.354;9.228;2023-12-07T03:27:18;36.59;35.04;41.10;;
47923;Laerm;33688;44.354;9.228;2023-12-07T03:29:44;36.60;35.00;41.32;;
47923;Laerm;33688;44.354;9.228;2023-12-07T03:32:10;36.59;35.02;41.55;;
47923;Laerm;33688;44.354;9.228;2023-12-07T03:34:35;36.62;35.08;41.22;;
47923;Laerm;33688;44.354;9.228;2023-12-07T03:37:02;36.63;35.05;41.55;;
47923;Laerm;33688;44.354;9.228;2023-12-07T03:39:28;36.59;34.95;41.48;;
47923;Laerm;33688;44.354;9.228;2023-12-07T03:41:55;36.62;34.97;41.46;;
47923;Laerm;33688;44.354;9.228;2023-12-07T03:44:21;36.60;35.06;41.24;;
47923;Laerm;33688;44.354;9.228;2023-12-07T03:46:46;36.61;34.94;41.38;;
47923;Laerm;33688;44.354;9.228;2023-12-07T03:49:12;36.66;34.99;42.53;;
47923;Laerm;33688;44.354;9.228;2023-12-07T03:51:38;36.61;35.19;41.35;;
47923;Laerm;33688;44.354;9.228;2023-12-07T03:54:04;36.59;35.15;41.18;;
47923;Laerm;33688;44.354;9.228;2023-12-07T03:56:32;36.60;35.04;41.23;;
47923;Laerm;33688;44.354;9.228;2023-12-07T03:58:58;36.62;35.00;41.47;;
47923;Laerm;33688;44.354;9.228;2023-12-07T04:01:26;36.59;35.13;41.29;;
47923;Laerm;33688;44.354;9.228;2023-12-07T04:03:54;36.60;35.14;41.66;;
47923;Laerm;33688;44.354;9.228;2023-12-07T04:06:21;36.60;35.13;41.78;;
47923;Laerm;33688;44.354;9.228;2023-12-07T04:08:48;36.62;35.12;41.48;;
47923;Laerm;33688;44.354;9.228;2023-12-07T04:11:17;36.60;35.10;41.55;;
47923;Laerm;33688;44.354;9.228;2023-12-07T04:13:43;36.60;34.99;42.32;;
47923;Laerm;33688;44.354;9.228;2023-12-07T04:16:10;36.59;35.14;41.28;;
47923;Laerm;33688;44.354;9.228;2023-12-07T04:18:36;36.61;34.98;41.63;;
47923;Laerm;33688;44.354;9.228;2023-12-07T04:21:03;36.63;34.96;44.43;;
47923;Laerm;33688;44.354;9.228;2023-12-07T04:23:29;36.58;35.04;41.68;;
47923;Laerm;33688;44.354;9.228;2023-12-07T04:25:55;36.61;35.08;41.58;;
47923;Laerm;33688;44.354;9.228;2023-12-07T04:28:20;36.57;35.01;41.67;;
47923;Laerm;33688;44.354;9.228;2023-12-07T04:30:46;36.59;35.11;41.46;;
47923;Laerm;33688;44.354;9.228;2023-12-07T04:33:12;36.60;35.10;41.46;;
47923;Laerm;33688;44.354;9.228;2023-12-07T04:35:37;36.58;35.12;41.50;;
47923;Laerm;33688;44.354;9.228;2023-12-07T04:38:03;36.59;35.00;41.17;;
47923;Laerm;33688;44.354;9.228;2023-12-07T04:40:29;36.58;35.15;41.66;;
47923;Laerm;33688;44.354;9.228;2023-12-07T04:42:55;36.59;35.04;41.82;;
47923;Laerm;33688;44.354;9.228;2023-12-07T04:45:22;36.60;35.08;41.56;;
47923;Laerm;33688;44.354;9.228;2023-12-07T04:47:47;36.60;35.11;41.56;;
47923;Laerm;33688;44.354;9.228;2023-12-07T04:50:14;36.58;35.11;41.21;;
47923;Laerm;33688;44.354;9.228;2023-12-07T04:52:40;36.59;34.95;41.83;;
47923;Laerm;33688;44.354;9.228;2023-12-07T04:55:06;36.56;35.15;41.69;;
47923;Laerm;33688;44.354;9.228;2023-12-07T04:57:35;36.64;35.02;46.46;;
47923;Laerm;33688;44.354;9.228;2023-12-07T05:00:04;36.83;35.15;47.47;;
47923;Laerm;33688;44.354;9.228;2023-12-07T05:02:35;36.60;35.13;45.62;;
47923;Laerm;33688;44.354;9.228;2023-12-07T05:05:01;36.63;35.01;45.39;;
47923;Laerm;33688;44.354;9.228;2023-12-07T05:07:27;36.88;34.97;54.72;;
47923;Laerm;33688;44.354;9.228;2023-12-07T05:09:52;36.80;35.15;53.89;;
47923;Laerm;33688;44.354;9.228;2023-12-07T05:12:18;36.60;35.08;41.19;;
47923;Laerm;33688;44.354;9.228;2023-12-07T05:14:44;36.65;35.16;42.34;;
47923;Laerm;33688;44.354;9.228;2023-12-07T05:17:10;36.66;35.05;41.31;;
47923;Laerm;33688;44.354;9.228;2023-12-07T05:19:36;36.68;35.07;41.47;;
47923;Laerm;33688;44.354;9.228;2023-12-07T05:22:02;36.60;35.00;41.50;;
47923;Laerm;33688;44.354;9.228;2023-12-07T05:24:28;36.86;35.04;43.00;;
47923;Laerm;33688;44.354;9.228;2023-12-07T05:26:56;36.62;35.03;41.33;;
47923;Laerm;33688;44.354;9.228;2023-12-07T05:29:22;36.63;35.05;42.02;;
47923;Laerm;33688;44.354;9.228;2023-12-07T05:31:49;36.60;35.14;41.81;;
47923;Laerm;33688;44.354;9.228;2023-12-07T05:34:17;36.62;35.11;41.52;;
47923;Laerm;33688;44.354;9.228;2023-12-07T05:36:43;36.64;35.10;41.50;;
47923;Laerm;33688;44.354;9.228;2023-12-07T05:39:09;36.67;35.16;41.67;;
47923;Laerm;33688;44.354;9.228;2023-12-07T05:41:36;36.68;35.23;41.66;;
47923;Laerm;33688;44.354;9.228;2023-12-07T05:44:02;36.65;35.11;41.62;;
47923;Laerm;33688;44.354;9.228;2023-12-07T05:46:29;36.70;35.11;41.88;;
47923;Laerm;33688;44.354;9.228;2023-12-07T05:48:55;36.70;34.86;43.98;;
47923;Laerm;33688;44.354;9.228;2023-12-07T05:51:22;36.97;35.18;43.87;;
47923;Laerm;33688;44.354;9.228;2023-12-07T05:53:48;36.71;34.99;41.43;;
47923;Laerm;33688;44.354;9.228;2023-12-07T05:56:21;36.66;35.15;41.59;;
47923;Laerm;33688;44.354;9.228;2023-12-07T05:58:47;36.66;35.15;41.64;;
47923;Laerm;33688;44.354;9.228;2023-12-07T06:01:17;36.69;35.03;41.50;;
47923;Laerm;33688;44.354;9.228;2023-12-07T06:03:44;36.74;35.16;42.36;;
47923;Laerm;33688;44.354;9.228;2023-12-07T06:06:11;36.70;35.04;41.78;;
47923;Laerm;33688;44.354;9.228;2023-12-07T06:08:38;36.75;35.14;41.59;;
47923;Laerm;33688;44.354;9.228;2023-12-07T06:11:04;36.70;35.02;41.53;;
47923;Laerm;33688;44.354;9.228;2023-12-07T06:13:30;36.69;34.83;41.41;;
47923;Laerm;33688;44.354;9.228;2023-12-07T06:15:55;36.70;35.08;41.93;;
47923;Laerm;33688;44.354;9.228;2023-12-07T06:18:21;36.98;35.12;45.84;;
47923;Laerm;33688;44.354;9.228;2023-12-07T06:20:48;36.75;35.13;41.27;;
47923;Laerm;33688;44.354;9.228;2023-12-07T06:23:14;37.04;35.16;50.26;;
47923;Laerm;33688;44.354;9.228;2023-12-07T06:25:39;36.69;35.19;41.54;;
47923;Laerm;33688;44.354;9.228;2023-12-07T06:28:05;36.84;35.25;47.80;;
47923;Laerm;33688;44.354;9.228;2023-12-07T06:30:32;36.80;34.98;47.63;;
47923;Laerm;33688;44.354;9.228;2023-12-07T06:32:58;36.70;35.21;41.56;;
47923;Laerm;33688;44.354;9.228;2023-12-07T06:35:24;36.76;35.15;43.31;;
47923;Laerm;33688;44.354;9.228;2023-12-07T06:37:50;37.15;35.19;46.53;;
47923;Laerm;33688;44.354;9.228;2023-12-07T06:40:15;36.76;35.19;42.71;;
47923;Laerm;33688;44.354;9.228;2023-12-07T06:42:41;36.86;35.08;48.46;;
47923;Laerm;33688;44.354;9.228;2023-12-07T06:45:09;36.68;35.21;42.03;;
47923;Laerm;33688;44.354;9.228;2023-12-07T06:47:39;35.93;35.08;39.83;;
47923;Laerm;33688;44.354;9.228;2023-12-07T06:50:07;36.63;35.17;41.66;;
47923;Laerm;33688;44.354;9.228;2023-12-07T06:52:39;36.68;35.06;41.72;;
47923;Laerm;33688;44.354;9.228;2023-12-07T06:55:06;36.69;35.04;41.97;;
47923;Laerm;33688;44.354;9.228;2023-12-07T06:57:32;36.67;35.14;41.11;;
47923;Laerm;33688;44.354;9.228;2023-12-07T06:59:59;36.71;35.14;41.44;;
47923;Laerm;33688;44.354;9.228;2023-12-07T07:02:24;36.71;35.05;42.10;;
47923;Laerm;33688;44.354;9.228;2023-12-07T07:04:51;36.72;35.17;41.34;;
47923;Laerm;33688;44.354;9.228;2023-12-07T07:07:17;36.77;35.27;41.66;;
47923;Laerm;33688;44.354;9.228;2023-12-07T07:09:43;36.71;35.21;41.79;;
47923;Laerm;33688;44.354;9.228;2023-12-07T07:12:09;36.75;35.20;41.70;;
47923;Laerm;33688;44.354;9.228;2023-12-07T07:14:35;42.56;35.21;62.67;;
47923;Laerm;33688;44.354;9.228;2023-12-07T07:17:01;40.52;35.30;59.08;;
47923;Laerm;33688;44.354;9.228;2023-12-07T07:19:27;42.41;35.27;59.50;;
47923;Laerm;33688;44.354;9.228;2023-12-07T07:21:53;43.03;35.25;64.70;;
47923;Laerm;33688;44.354;9.228;2023-12-07T07:24:18;38.10;35.11;59.60;;
47923;Laerm;33688;44.354;9.228;2023-12-07T07:26:44;37.57;35.17;56.71;;
47923;Laerm;33688;44.354;9.228;2023-12-07T07:29:10;37.41;35.02;54.70;;
47923;Laerm;33688;44.354;9.228;2023-12-07T07:31:38;37.03;35.18;42.20;;
47923;Laerm;33688;44.354;9.228;2023-12-07T07:34:03;36.89;35.17;41.69;;
47923;Laerm;33688;44.354;9.228;2023-12-07T07:36:31;36.90;35.07;42.27;;
47923;Laerm;33688;44.354;9.228;2023-12-07T07:38:57;46.22;35.23;67.15;;
47923;Laerm;33688;44.354;9.228;2023-12-07T07:41:23;60.10;41.75;83.74;;
47923;Laerm;33688;44.354;9.228;2023-12-07T07:43:49;47.29;42.61;66.24;;
47923;Laerm;33688;44.354;9.228;2023-12-07T07:46:17;44.08;42.14;55.94;;
47923;Laerm;33688;44.354;9.228;2023-12-07T07:48:44;57.34;42.64;77.24;;
47923;Laerm;33688;44.354;9.228;2023-12-07T07:51:10;63.32;42.69;78.83;;
47923;Laerm;33688;44.354;9.228;2023-12-07T07:53:35;60.89;42.25;81.31;;
47923;Laerm;33688;44.354;9.228;2023-12-07T07:56:01;66.32;42.91;86.74;;
47923;Laerm;33688;44.354;9.228;2023-12-07T07:58:27;53.19;42.57;70.88;;
47923;Laerm;33688;44.354;9.228;2023-12-07T08:00:53;53.95;43.25;72.99;;
47923;Laerm;33688;44.354;9.228;2023-12-07T08:03:20;62.21;43.23;80.18;;
47923;Laerm;33688;44.354;9.228;2023-12-07T08:05:46;65.90;43.67;84.40;;
47923;Laerm;33688;44.354;9.228;2023-12-07T08:08:13;61.51;43.31;77.47;;
47923;Laerm;33688;44.354;9.228;2023-12-07T08:10:38;50.17;43.02;70.58;;
47923;Laerm;33688;44.354;9.228;2023-12-07T08:13:04;46.50;42.92;60.16;;
47923;Laerm;33688;44.354;9.228;2023-12-07T08:15:31;52.08;43.31;67.82;;
47923;Laerm;33688;44.354;9.228;2023-12-07T08:17:57;52.93;43.15;72.11;;
47923;Laerm;33688;44.354;9.228;2023-12-07T08:20:24;50.90;43.01;69.00;;
47923;Laerm;33688;44.354;9.228;2023-12-07T08:22:50;49.20;43.03;66.30;;
47923;Laerm;33688;44.354;9.228;2023-12-07T08:25:16;51.24;42.76;64.86;;
47923;Laerm;33688;44.354;9.228;2023-12-07T08:27:42;50.92;43.42;67.43;;
47923;Laerm;33688;44.354;9.228;2023-12-07T08:30:12;55.41;43.22;76.13;;
47923;Laerm;33688;44.354;9.228;2023-12-07T08:32:39;54.87;43.52;74.98;;
47923;Laerm;33688;44.354;9.228;2023-12-07T08:35:06;57.29;44.01;75.73;;
47923;Laerm;33688;44.354;9.228;2023-12-07T08:37:33;50.82;44.40;62.56;;
47923;Laerm;33688;44.354;9.228;2023-12-07T08:40:00;57.42;44.33;83.14;;
47923;Laerm;33688;44.354;9.228;2023-12-07T08:42:25;62.28;44.90;81.85;;
47923;Laerm;33688;44.354;9.228;2023-12-07T08:44:56;52.43;45.21;72.29;;
47923;Laerm;33688;44.354;9.228;2023-12-07T08:47:22;51.63;44.85;71.79;;
47923;Laerm;33688;44.354;9.228;2023-12-07T08:49:48;55.86;45.08;77.12;;
47923;Laerm;33688;44.354;9.228;2023-12-07T08:52:37;49.95;43.52;69.30;;
47923;Laerm;33688;44.354;9.228;2023-12-07T08:55:04;50.27;43.91;63.31;;
47923;Laerm;33688;44.354;9.228;2023-12-07T08:57:30;50.24;44.15;64.04;;
47923;Laerm;33688;44.354;9.228;2023-12-07T08:59:56;52.41;44.15;69.98;;
47923;Laerm;33688;44.354;9.228;2023-12-07T09:02:21;49.58;43.55;61.87;;
47923;Laerm;33688;44.354;9.228;2023-12-07T09:04:48;50.58;43.52;70.91;;
47923;Laerm;33688;44.354;9.228;2023-12-07T09:07:18;52.67;43.22;79.67;;
47923;Laerm;33688;44.354;9.228;2023-12-07T09:09:44;50.37;43.40;67.92;;
47923;Laerm;33688;44.354;9.228;2023-12-07T09:12:14;49.76;44.22;66.33;;
47923;Laerm;33688;44.354;9.228;2023-12-07T09:14:40;49.49;44.14;60.09;;
47923;Laerm;33688;44.354;9.228;2023-12-07T09:17:08;49.15;43.43;60.90;;
47923;Laerm;33688;44.354;9.228;2023-12-07T09:19:34;50.32;44.25;61.92;;
47923;Laerm;33688;44.354;9.228;2023-12-07T09:22:00;51.58;43.85;61.66;;
47923;Laerm;33688;44.354;9.228;2023-12-07T09:24:26;50.42;44.18;60.92;;
47923;Laerm;33688;44.354;9.228;2023-12-07T09:26:52;52.61;44.54;76.16;;
47923;Laerm;33688;44.354;9.228;2023-12-07T09:29:36;50.12;44.47;61.79;;
47923;Laerm;33688;44.354;9.228;2023-12-07T09:32:02;49.32;43.93;68.37;;
47923;Laerm;33688;44.354;9.228;2023-12-07T09:34:30;48.87;43.50;61.10;;
47923;Laerm;33688;44.354;9.228;2023-12-07T09:37:09;51.37;43.62;77.47;;
47923;Laerm;33688;44.354;9.228;2023-12-07T09:39:35;48.88;43.63;60.96;;
47923;Laerm;33688;44.354;9.228;2023-12-07T09:42:02;50.95;43.82;64.30;;
47923;Laerm;33688;44.354;9.228;2023-12-07T09:44:28;49.52;43.29;66.55;;
47923;Laerm;33688;44.354;9.228;2023-12-07T09:46:54;48.84;43.37;61.05;;
47923;Laerm;33688;44.354;9.228;2023-12-07T09:49:22;52.62;43.16;72.39;;
47923;Laerm;33688;44.354;9.228;2023-12-07T09:51:49;49.95;43.42;67.91;;
47923;Laerm;33688;44.354;9.228;2023-12-07T09:54:18;54.76;43.60;77.00;;
47923;Laerm;33688;44.354;9.228;2023-12-07T09:56:50;60.55;42.93;77.03;;
47923;Laerm;33688;44.354;9.228;2023-12-07T09:59:20;60.25;43.58;77.07;;
47923;Laerm;33688;44.354;9.228;2023-12-07T10:01:46;62.23;43.56;80.84;;
47923;Laerm;33688;44.354;9.228;2023-12-07T10:04:30;61.91;43.24;79.61;;
47923;Laerm;33688;44.354;9.228;2023-12-07T10:06:56;46.01;42.95;56.51;;
47923;Laerm;33688;44.354;9.228;2023-12-07T10:09:23;48.79;43.47;60.02;;
47923;Laerm;33688;44.354;9.228;2023-12-07T10:11:49;47.26;43.37;59.94;;
47923;Laerm;33688;44.354;9.228;2023-12-07T10:14:15;47.65;43.22;58.67;;
47923;Laerm;33688;44.354;9.228;2023-12-07T10:16:55;50.42;43.18;64.58;;
47923;Laerm;33688;44.354;9.228;2023-12-07T10:19:22;50.26;43.63;61.34;;
47923;Laerm;33688;44.354;9.228;2023-12-07T10:21:49;51.98;43.18;67.77;;
47923;Laerm;33688;44.354;9.228;2023-12-07T10:24:36;58.75;43.06;80.79;;
47923;Laerm;33688;44.354;9.228;2023-12-07T10:27:05;51.19;43.26;69.24;;
47923;Laerm;33688;44.354;9.228;2023-12-07T10:29:41;50.31;43.52;62.48;;
47923;Laerm;33688;44.354;9.228;2023-12-07T10:32:15;46.48;42.98;58.15;;
47923;Laerm;33688;44.354;9.228;2023-12-07T10:34:43;47.63;42.97;61.02;;
47923;Laerm;33688;44.354;9.228;2023-12-07T10:37:11;55.71;42.88;79.36;;
47923;Laerm;33688;44.354;9.228;2023-12-07T10:39:38;50.87;43.27;63.81;;
47923;Laerm;33688;44.354;9.228;2023-12-07T10:42:13;50.54;43.16;62.73;;
47923;Laerm;33688;44.354;9.228;2023-12-07T10:44:44;50.74;43.05;68.38;;
47923;Laerm;33688;44.354;9.228;2023-12-07T10:47:13;56.09;43.35;82.98;;
47923;Laerm;33688;44.354;9.228;2023-12-07T10:49:45;50.31;43.48;61.94;;
47923;Laerm;33688;44.354;9.228;2023-12-07T10:52:13;50.17;43.38;65.12;;
47923;Laerm;33688;44.354;9.228;2023-12-07T10:57:30;50.32;43.20;63.77;;
47923;Laerm;33688;44.354;9.228;2023-12-07T11:00:12;53.86;43.36;71.39;;
47923;Laerm;33688;44.354;9.228;2023-12-07T11:02:39;58.50;43.31;76.61;;
47923;Laerm;33688;44.354;9.228;2023-12-07T11:05:20;60.58;43.78;81.48;;
47923;Laerm;33688;44.354;9.228;2023-12-07T11:08:09;63.14;43.80;80.51;;
47923;Laerm;33688;44.354;9.228;2023-12-07T11:11:23;65.57;43.63;84.90;;
47923;Laerm;33688;44.354;9.228;2023-12-07T11:14:08;60.62;43.75;77.33;;
47923;Laerm;33688;44.354;9.228;2023-12-07T11:28:36;51.53;43.70;65.84;;
47923;Laerm;33688;44.354;9.228;2023-12-07T11:31:06;52.24;43.71;64.25;;
47923;Laerm;33688;44.354;9.228;2023-12-07T11:33:33;51.60;44.27;67.67;;
47923;Laerm;33688;44.354;9.228;2023-12-07T11:36:07;47.14;43.50;64.69;;
47923;Laerm;33688;44.354;9.228;2023-12-07T11:38:38;48.00;43.09;69.00;;
47923;Laerm;33688;44.354;9.228;2023-12-07T11:41:05;51.12;43.46;64.85;;
47923;Laerm;33688;44.354;9.228;2023-12-07T11:46:03;47.44;43.08;67.14;;
47923;Laerm;33688;44.354;9.228;2023-12-07T11:48:31;45.10;43.38;56.10;;
47923;Laerm;33688;44.354;9.228;2023-12-07T11:51:05;45.49;43.49;58.39;;
47923;Laerm;33688;44.354;9.228;2023-12-07T11:53:38;60.11;43.73;74.96;;
47923;Laerm;33688;44.354;9.228;2023-12-07T11:56:06;44.83;43.43;52.83;;
47923;Laerm;33688;44.354;9.228;2023-12-07T11:58:36;45.34;43.55;59.05;;
47923;Laerm;33688;44.354;9.228;2023-12-07T12:01:04;45.17;43.55;50.88;;
47923;Laerm;33688;44.354;9.228;2023-12-07T12:03:32;45.40;43.65;59.04;;
47923;Laerm;33688;44.354;9.228;2023-12-07T12:06:05;45.89;44.06;60.69;;
47923;Laerm;33688;44.354;9.228;2023-12-07T12:08:34;47.86;43.98;73.85;;
47923;Laerm;33688;44.354;9.228;2023-12-07T12:11:02;45.18;43.97;51.93;;
47923;Laerm;33688;44.354;9.228;2023-12-07T12:13:37;54.53;43.70;78.68;;
47923;Laerm;33688;44.354;9.228;2023-12-07T12:16:06;47.94;43.63;64.71;;
47923;Laerm;33688;44.354;9.228;2023-12-07T12:18:35;44.86;43.45;54.14;;
47923;Laerm;33688;44.354;9.228;2023-12-07T12:21:07;44.86;43.41;46.65;;
47923;Laerm;33688;44.354;9.228;2023-12-07T12:23:38;44.77;43.06;52.06;;
47923;Laerm;33688;44.354;9.228;2023-12-07T12:26:07;45.02;43.68;55.14;;
47923;Laerm;33688;44.354;9.228;2023-12-07T12:28:36;45.15;43.69;47.32;;
47923;Laerm;33688;44.354;9.228;2023-12-07T12:31:10;44.99;43.79;46.56;;
47923;Laerm;33688;44.354;9.228;2023-12-07T12:33:38;44.78;43.55;48.81;;
47923;Laerm;33688;44.354;9.228;2023-12-07T12:36:07;44.51;43.25;46.76;;
47923;Laerm;33688;44.354;9.228;2023-12-07T12:38:37;44.61;43.10;52.88;;
47923;Laerm;33688;44.354;9.228;2023-12-07T12:41:05;44.47;43.12;49.00;;
47923;Laerm;33688;44.354;9.228;2023-12-07T12:43:31;44.40;43.25;46.32;;
47923;Laerm;33688;44.354;9.228;2023-12-07T12:45:59;44.34;42.81;47.05;;
47923;Laerm;33688;44.354;9.228;2023-12-07T12:48:28;44.34;42.93;46.46;;
47923;Laerm;33688;44.354;9.228;2023-12-07T12:50:57;44.63;43.08;59.14;;
47923;Laerm;33688;44.354;9.228;2023-12-07T12:53:27;44.48;43.23;46.27;;
47923;Laerm;33688;44.354;9.228;2023-12-07T12:55:53;44.54;43.16;53.24;;
47923;Laerm;33688;44.354;9.228;2023-12-07T12:58:21;44.49;43.13;47.17;;
47923;Laerm;33688;44.354;9.228;2023-12-07T13:00:49;44.51;43.09;46.34;;
47923;Laerm;33688;44.354;9.228;2023-12-07T13:03:14;44.35;42.98;47.54;;
47923;Laerm;33688;44.354;9.228;2023-12-07T13:05:40;44.37;42.93;45.97;;
47923;Laerm;33688;44.354;9.228;2023-12-07T13:08:06;44.32;43.04;46.26;;
47923;Laerm;33688;44.354;9.228;2023-12-07T13:10:34;44.37;43.17;46.36;;
47923;Laerm;33688;44.354;9.228;2023-12-07T13:13:00;44.36;43.15;46.30;;
47923;Laerm;33688;44.354;9.228;2023-12-07T13:15:30;44.61;43.12;53.81;;
47923;Laerm;33688;44.354;9.228;2023-12-07T13:17:57;44.73;43.07;52.04;;
47923;Laerm;33688;44.354;9.228;2023-12-07T13:20:23;45.59;43.07;63.10;;
47923;Laerm;33688;44.354;9.228;2023-12-07T13:22:50;45.05;43.46;49.99;;
47923;Laerm;33688;44.354;9.228;2023-12-07T13:25:17;44.73;43.09;46.57;;
47923;Laerm;33688;44.354;9.228;2023-12-07T13:27:46;44.38;42.86;46.49;;
47923;Laerm;33688;44.354;9.228;2023-12-07T13:30:13;44.25;42.52;48.42;;
47923;Laerm;33688;44.354;9.228;2023-12-07T13:32:40;44.29;42.91;46.20;;
47923;Laerm;33688;44.354;9.228;2023-12-07T13:35:07;44.44;43.06;46.27;;
47923;Laerm;33688;44.354;9.228;2023-12-07T13:37:34;48.68;43.36;67.94;;
47923;Laerm;33688;44.354;9.228;2023-12-07T13:40:03;44.87;42.99;53.96;;
47923;Laerm;33688;44.354;9.228;2023-12-07T13:42:32;48.90;43.23;70.81;;
47923;Laerm;33688;44.354;9.228;2023-12-07T13:45:00;45.81;43.26;63.77;;
47923;Laerm;33688;44.354;9.228;2023-12-07T13:47:28;51.54;43.37;77.62;;
47923;Laerm;33688;44.354;9.228;2023-12-07T13:50:00;53.18;43.32;77.26;;
47923;Laerm;33688;44.354;9.228;2023-12-07T13:52:28;46.14;43.65;55.95;;
47923;Laerm;33688;44.354;9.228;2023-12-07T13:54:58;55.78;43.48;76.38;;
47923;Laerm;33688;44.354;9.228;2023-12-07T13:57:25;57.25;43.66;80.44;;
47923;Laerm;33688;44.354;9.228;2023-12-07T13:59:54;50.76;44.05;76.16;;
47923;Laerm;33688;44.354;9.228;2023-12-07T14:02:22;45.89;43.66;57.95;;
47923;Laerm;33688;44.354;9.228;2023-12-07T14:04:49;48.62;43.75;74.78;;